createdAt,value
2022-11-30T00:03:46.997Z,5.6
2022-11-30T00:18:47.000Z,5.7
2022-11-30T00:33:46.998Z,5.8
2022-11-30T00:48:47.020Z,5.8
2022-11-30T01:03:46.998Z,5.8
2022-11-30T01:18:47.025Z,5.8
2022-11-30T01:33:46.990Z,5.7
2022-11-30T01:48:47.017Z,5.7
2022-11-30T02:03:46.991Z,5.7
2022-11-30T02:18:47.023Z,5.7
2022-11-30T02:33:46.990Z,5.6
2022-11-30T02:48:47.016Z,5.6
2022-11-30T03:03:47.009Z,5.7
2022-11-30T03:18:47.007Z,5.7
2022-11-30T03:33:47.010Z,5.7
2022-11-30T03:48:47.022Z,5.7
2022-11-30T04:03:47.018Z,5.8
2022-11-30T04:18:46.944Z,5.8
2022-11-30T04:33:47.011Z,5.8
2022-11-30T04:48:47.027Z,5.8
2022-11-30T05:03:46.993Z,5.8
2022-11-30T05:18:47.047Z,5.8
2022-11-30T05:33:47.027Z,5.8
2022-11-30T05:48:46.986Z,5.8
2022-11-30T06:03:47.017Z,5.7
2022-11-30T06:18:46.996Z,5.7
2022-11-30T06:33:46.990Z,5.8
2022-11-30T06:48:47.027Z,5.7
2022-11-30T07:03:47.029Z,5.6
2022-11-30T07:18:47.016Z,5.5
2022-11-30T07:33:47.012Z,5.4
2022-11-30T07:48:47.018Z,5.4
2022-11-30T08:03:47.014Z,5.4
2022-11-30T08:18:47.000Z,5.5
2022-11-30T08:33:47.019Z,5.4
2022-11-30T08:48:47.019Z,5.5
2022-11-30T09:03:46.994Z,5.5
2022-11-30T09:18:46.994Z,5.4
2022-11-30T09:33:46.953Z,5.4
2022-11-30T09:48:47.032Z,5.4
2022-11-30T10:03:47.027Z,5.6
2022-11-30T10:18:46.989Z,5.6
2022-11-30T10:33:46.974Z,5.5
2022-11-30T10:48:47.019Z,5.5
2022-11-30T11:03:47.024Z,5.6
2022-11-30T11:18:47.024Z,5.8
2022-11-30T11:33:47.020Z,6
2022-11-30T11:48:47.016Z,6
2022-11-30T12:03:46.998Z,6.1
2022-11-30T12:18:47.025Z,6.1
2022-11-30T12:33:47.003Z,6.1
2022-11-30T12:48:47.108Z,6.2
2022-11-30T13:03:46.997Z,6.3
2022-11-30T13:18:46.986Z,6.2
2022-11-30T13:33:47.001Z,6.2
2022-11-30T13:48:47.010Z,6.1
2022-11-30T14:03:50.230Z,6.2
2022-11-30T14:18:47.026Z,6.1
2022-11-30T14:33:46.988Z,6.1
2022-11-30T14:48:46.990Z,6
2022-11-30T15:03:47.013Z,5.8
2022-11-30T15:18:46.993Z,5.6
2022-11-30T15:33:47.017Z,5.6
2022-11-30T15:48:47.008Z,5.5
2022-11-30T16:03:47.000Z,5.4
2022-11-30T16:18:46.990Z,5.4
2022-11-30T16:33:46.983Z,5.4
2022-11-30T16:48:46.959Z,5.4
2022-11-30T17:03:47.009Z,5.4
2022-11-30T17:18:46.999Z,5.4
2022-11-30T17:33:48.452Z,5.4
2022-11-30T17:48:46.989Z,5.5
2022-11-30T18:03:47.000Z,5.5
2022-11-30T18:18:47.941Z,5.5
2022-11-30T18:33:47.001Z,5.6
2022-11-30T18:48:46.957Z,5.5
2022-11-30T19:03:47.018Z,5.6
2022-11-30T19:18:47.019Z,5.6
2022-11-30T19:33:46.993Z,5.6
2022-11-30T19:48:46.985Z,5.6
2022-11-30T20:03:47.017Z,5.6
2022-11-30T20:18:47.052Z,5.5
2022-11-30T20:33:47.021Z,5.4
2022-11-30T20:48:46.996Z,5.4
2022-11-30T21:03:46.989Z,5.4
2022-11-30T21:18:47.031Z,5.4
2022-11-30T21:33:52.634Z,5.3
2022-11-30T21:48:47.011Z,5.2
2022-11-30T22:03:47.086Z,5.2
2022-11-30T22:18:46.951Z,5.2
2022-11-30T22:33:46.965Z,5.2
2022-11-30T22:48:46.981Z,5.2
2022-11-30T23:03:47.014Z,5.2
2022-11-30T23:18:47.015Z,5.1
2022-11-30T23:33:47.002Z,5.1
2022-11-30T23:48:46.950Z,5.1
